sensor_id;sensor_type;location;lat;lon;timestamp;temperature;humidity
5554;DHT22;2800;49.528;8.666;2023-08-24T00:00:10;21.40;99.90
5554;DHT22;2800;49.528;8.666;2023-08-24T00:02:36;21.30;99.90
5554;DHT22;2800;49.528;8.666;2023-08-24T00:05:02;21.40;99.90
5554;DHT22;2800;49.528;8.666;2023-08-24T00:07:28;21.30;99.90
5554;DHT22;2800;49.528;8.666;2023-08-24T00:09:53;21.30;99.90
5554;DHT22;2800;49.528;8.666;2023-08-24T00:12:19;21.30;99.90
5554;DHT22;2800;49.528;8.666;2023-08-24T00:14:45;21.30;99.90
5554;DHT22;2800;49.528;8.666;2023-08-24T00:17:10;21.30;99.90
5554;DHT22;2800;49.528;8.666;2023-08-24T00:19:36;21.20;99.90
5554;DHT22;2800;49.528;8.666;2023-08-24T00:22:02;21.20;99.90
5554;DHT22;2800;49.528;8.666;2023-08-24T00:24:27;21.10;99.90
5554;DHT22;2800;49.528;8.666;2023-08-24T00:26:53;21.10;99.90
5554;DHT22;2800;49.528;8.666;2023-08-24T00:29:18;21.10;99.90
5554;DHT22;2800;49.528;8.666;2023-08-24T00:31:44;21.20;99.90
5554;DHT22;2800;49.528;8.666;2023-08-24T00:34:09;21.30;99.90
5554;DHT22;2800;49.528;8.666;2023-08-24T00:36:37;21.30;99.90
5554;DHT22;2800;49.528;8.666;2023-08-24T00:39:03;21.30;99.90
5554;DHT22;2800;49.528;8.666;2023-08-24T00:41:28;21.50;99.90
5554;DHT22;2800;49.528;8.666;2023-08-24T00:43:54;21.60;99.90
5554;DHT22;2800;49.528;8.666;2023-08-24T00:46:19;21.70;99.90
5554;DHT22;2800;49.528;8.666;2023-08-24T00:48:45;21.70;99.90
5554;DHT22;2800;49.528;8.666;2023-08-24T00:51:11;21.80;99.90
5554;DHT22;2800;49.528;8.666;2023-08-24T00:53:37;21.80;99.90
5554;DHT22;2800;49.528;8.666;2023-08-24T00:56:03;21.80;99.90
5554;DHT22;2800;49.528;8.666;2023-08-24T00:58:29;21.50;99.90
5554;DHT22;2800;49.528;8.666;2023-08-24T01:00:57;21.30;99.90
5554;DHT22;2800;49.528;8.666;2023-08-24T01:03:23;21.20;99.90
5554;DHT22;2800;49.528;8.666;2023-08-24T01:05:49;20.90;99.90
5554;DHT22;2800;49.528;8.666;2023-08-24T01:08:15;20.80;99.90
5554;DHT22;2800;49.528;8.666;2023-08-24T01:10:47;20.70;99.90
5554;DHT22;2800;49.528;8.666;2023-08-24T01:13:20;20.60;99.90
5554;DHT22;2800;49.528;8.666;2023-08-24T01:15:55;20.60;99.90
5554;DHT22;2800;49.528;8.666;2023-08-24T01:18:23;20.60;99.90
5554;DHT22;2800;49.528;8.666;2023-08-24T01:20:52;20.50;99.90
5554;DHT22;2800;49.528;8.666;2023-08-24T01:23:29;20.60;99.90
5554;DHT22;2800;49.528;8.666;2023-08-24T01:26:39;20.60;99.90
5554;DHT22;2800;49.528;8.666;2023-08-24T01:28:58;20.50;99.90
5554;DHT22;2800;49.528;8.666;2023-08-24T01:31:24;20.60;99.90
5554;DHT22;2800;49.528;8.666;2023-08-24T01:33:50;20.60;99.90
5554;DHT22;2800;49.528;8.666;2023-08-24T01:36:16;20.60;99.90
5554;DHT22;2800;49.528;8.666;2023-08-24T01:38:54;20.60;99.90
5554;DHT22;2800;49.528;8.666;2023-08-24T01:41:28;20.60;99.90
5554;DHT22;2800;49.528;8.666;2023-08-24T01:43:57;20.50;99.90
5554;DHT22;2800;49.528;8.666;2023-08-24T01:46:24;20.50;99.90
5554;DHT22;2800;49.528;8.666;2023-08-24T01:48:51;20.40;99.90
5554;DHT22;2800;49.528;8.666;2023-08-24T01:51:17;20.40;99.90
5554;DHT22;2800;49.528;8.666;2023-08-24T01:53:43;20.30;99.90
5554;DHT22;2800;49.528;8.666;2023-08-24T01:56:10;20.30;99.90
5554;DHT22;2800;49.528;8.666;2023-08-24T01:58:36;20.40;99.90
5554;DHT22;2800;49.528;8.666;2023-08-24T02:01:02;20.40;99.90
5554;DHT22;2800;49.528;8.666;2023-08-24T02:03:27;20.40;99.90
5554;DHT22;2800;49.528;8.666;2023-08-24T02:05:53;20.30;99.90
5554;DHT22;2800;49.528;8.666;2023-08-24T02:08:18;20.30;99.90
5554;DHT22;2800;49.528;8.666;2023-08-24T02:10:44;20.20;99.90
5554;DHT22;2800;49.528;8.666;2023-08-24T02:13:09;20.20;99.90
5554;DHT22;2800;49.528;8.666;2023-08-24T02:15:36;20.10;99.90
5554;DHT22;2800;49.528;8.666;2023-08-24T02:18:02;20.10;99.90
5554;DHT22;2800;49.528;8.666;2023-08-24T02:20:28;20.00;99.90
5554;DHT22;2800;49.528;8.666;2023-08-24T02:22:53;20.00;99.90
5554;DHT22;2800;49.528;8.666;2023-08-24T02:25:18;20.10;99.90
5554;DHT22;2800;49.528;8.666;2023-08-24T02:27:44;20.20;99.90
5554;DHT22;2800;49.528;8.666;2023-08-24T02:30:10;20.30;99.90
5554;DHT22;2800;49.528;8.666;2023-08-24T02:32:36;20.30;99.90
5554;DHT22;2800;49.528;8.666;2023-08-24T02:35:01;20.30;99.90
5554;DHT22;2800;49.528;8.666;2023-08-24T02:37:27;20.40;99.90
5554;DHT22;2800;49.528;8.666;2023-08-24T02:39:52;20.40;99.90
5554;DHT22;2800;49.528;8.666;2023-08-24T02:42:18;20.50;99.90
5554;DHT22;2800;49.528;8.666;2023-08-24T02:44:43;20.50;99.90
5554;DHT22;2800;49.528;8.666;2023-08-24T02:47:09;20.40;99.90
5554;DHT22;2800;49.528;8.666;2023-08-24T02:49:34;20.20;99.90
5554;DHT22;2800;49.528;8.666;2023-08-24T02:52:00;20.10;99.90
5554;DHT22;2800;49.528;8.666;2023-08-24T02:54:26;20.00;99.90
5554;DHT22;2800;49.528;8.666;2023-08-24T02:56:51;20.00;99.90
5554;DHT22;2800;49.528;8.666;2023-08-24T02:59:18;19.90;99.90
5554;DHT22;2800;49.528;8.666;2023-08-24T03:01:44;20.00;99.90
5554;DHT22;2800;49.528;8.666;2023-08-24T03:04:09;20.10;99.90
5554;DHT22;2800;49.528;8.666;2023-08-24T03:06:35;20.10;99.90
5554;DHT22;2800;49.528;8.666;2023-08-24T03:09:01;20.10;99.90
5554;DHT22;2800;49.528;8.666;2023-08-24T03:11:29;20.10;99.90
5554;DHT22;2800;49.528;8.666;2023-08-24T03:13:54;20.10;99.90
5554;DHT22;2800;49.528;8.666;2023-08-24T03:16:20;20.20;99.90
5554;DHT22;2800;49.528;8.666;2023-08-24T03:18:45;20.30;99.90
5554;DHT22;2800;49.528;8.666;2023-08-24T03:21:11;20.20;99.90
5554;DHT22;2800;49.528;8.666;2023-08-24T03:23:36;20.30;99.90
5554;DHT22;2800;49.528;8.666;2023-08-24T03:26:02;20.30;99.90
5554;DHT22;2800;49.528;8.666;2023-08-24T03:28:28;20.30;99.90
5554;DHT22;2800;49.528;8.666;2023-08-24T03:30:54;20.40;99.90
5554;DHT22;2800;49.528;8.666;2023-08-24T03:33:21;20.40;99.90
5554;DHT22;2800;49.528;8.666;2023-08-24T03:35:46;20.60;99.90
5554;DHT22;2800;49.528;8.666;2023-08-24T03:38:13;20.70;99.90
5554;DHT22;2800;49.528;8.666;2023-08-24T03:40:39;20.70;99.90
5554;DHT22;2800;49.528;8.666;2023-08-24T03:43:04;20.60;99.90
5554;DHT22;2800;49.528;8.666;2023-08-24T03:45:30;20.50;99.90
5554;DHT22;2800;49.528;8.666;2023-08-24T03:47:56;20.90;99.90
5554;DHT22;2800;49.528;8.666;2023-08-24T03:50:22;20.60;99.90
5554;DHT22;2800;49.528;8.666;2023-08-24T03:52:52;21.60;99.90
5554;DHT22;2800;49.528;8.666;2023-08-24T03:55:19;21.80;99.90
5554;DHT22;2800;49.528;8.666;2023-08-24T03:57:45;21.90;99.90
5554;DHT22;2800;49.528;8.666;2023-08-24T04:00:11;22.10;99.90
5554;DHT22;2800;49.528;8.666;2023-08-24T04:02:38;22.30;99.90
5554;DHT22;2800;49.528;8.666;2023-08-24T04:05:03;22.50;99.90
5554;DHT22;2800;49.528;8.666;2023-08-24T04:07:29;22.70;99.90
5554;DHT22;2800;49.528;8.666;2023-08-24T04:09:54;22.90;99.90
5554;DHT22;2800;49.528;8.666;2023-08-24T04:12:20;23.00;99.90
5554;DHT22;2800;49.528;8.666;2023-08-24T04:14:45;22.90;99.90
5554;DHT22;2800;49.528;8.666;2023-08-24T04:17:11;22.80;99.90
5554;DHT22;2800;49.528;8.666;2023-08-24T04:19:39;22.60;99.90
5554;DHT22;2800;49.528;8.666;2023-08-24T04:22:05;22.10;99.90
5554;DHT22;2800;49.528;8.666;2023-08-24T04:24:30;21.70;99.90
5554;DHT22;2800;49.528;8.666;2023-08-24T04:26:56;21.50;99.90
5554;DHT22;2800;49.528;8.666;2023-08-24T04:29:21;21.30;99.90
5554;DHT22;2800;49.528;8.666;2023-08-24T04:31:47;21.20;99.90
5554;DHT22;2800;49.528;8.666;2023-08-24T04:34:13;21.20;99.90
5554;DHT22;2800;49.528;8.666;2023-08-24T04:36:38;21.10;99.90
5554;DHT22;2800;49.528;8.666;2023-08-24T04:39:04;21.10;99.90
5554;DHT22;2800;49.528;8.666;2023-08-24T04:41:29;21.10;99.90
5554;DHT22;2800;49.528;8.666;2023-08-24T04:43:55;21.10;99.90
5554;DHT22;2800;49.528;8.666;2023-08-24T04:46:21;21.00;99.90
5554;DHT22;2800;49.528;8.666;2023-08-24T04:48:46;21.00;99.90
5554;DHT22;2800;49.528;8.666;2023-08-24T04:51:12;21.20;99.90
5554;DHT22;2800;49.528;8.666;2023-08-24T04:53:37;21.40;99.90
5554;DHT22;2800;49.528;8.666;2023-08-24T04:56:03;21.80;99.90
5554;DHT22;2800;49.528;8.666;2023-08-24T04:58:28;22.10;99.90
5554;DHT22;2800;49.528;8.666;2023-08-24T05:00:54;22.20;99.90
5554;DHT22;2800;49.528;8.666;2023-08-24T05:03:21;22.30;99.90
5554;DHT22;2800;49.528;8.666;2023-08-24T05:05:47;22.30;99.90
5554;DHT22;2800;49.528;8.666;2023-08-24T05:08:13;22.30;99.90
5554;DHT22;2800;49.528;8.666;2023-08-24T05:10:38;22.20;99.90
5554;DHT22;2800;49.528;8.666;2023-08-24T05:13:04;22.20;99.90
5554;DHT22;2800;49.528;8.666;2023-08-24T05:15:31;22.20;99.90
5554;DHT22;2800;49.528;8.666;2023-08-24T05:17:56;22.30;99.90
5554;DHT22;2800;49.528;8.666;2023-08-24T05:20:25;22.40;99.90
5554;DHT22;2800;49.528;8.666;2023-08-24T05:22:50;22.60;99.90
5554;DHT22;2800;49.528;8.666;2023-08-24T05:25:16;22.80;99.90
5554;DHT22;2800;49.528;8.666;2023-08-24T05:27:42;22.90;99.90
5554;DHT22;2800;49.528;8.666;2023-08-24T05:30:08;23.00;99.90
5554;DHT22;2800;49.528;8.666;2023-08-24T05:32:35;22.80;99.90
5554;DHT22;2800;49.528;8.666;2023-08-24T05:35:04;22.30;99.90
5554;DHT22;2800;49.528;8.666;2023-08-24T05:37:30;22.20;99.90
5554;DHT22;2800;49.528;8.666;2023-08-24T05:39:56;21.90;99.90
5554;DHT22;2800;49.528;8.666;2023-08-24T05:42:21;22.00;99.90
5554;DHT22;2800;49.528;8.666;2023-08-24T05:44:47;21.60;99.90
5554;DHT22;2800;49.528;8.666;2023-08-24T05:47:12;21.60;99.90
5554;DHT22;2800;49.528;8.666;2023-08-24T05:49:38;21.60;99.90
5554;DHT22;2800;49.528;8.666;2023-08-24T05:52:03;21.40;99.90
5554;DHT22;2800;49.528;8.666;2023-08-24T05:54:29;21.10;99.90
5554;DHT22;2800;49.528;8.666;2023-08-24T05:56:54;20.90;99.90
5554;DHT22;2800;49.528;8.666;2023-08-24T05:59:20;20.60;99.90
5554;DHT22;2800;49.528;8.666;2023-08-24T06:01:46;20.50;99.90
5554;DHT22;2800;49.528;8.666;2023-08-24T06:04:12;20.30;99.90
5554;DHT22;2800;49.528;8.666;2023-08-24T06:06:37;20.30;99.90
5554;DHT22;2800;49.528;8.666;2023-08-24T06:09:03;20.30;99.90
5554;DHT22;2800;49.528;8.666;2023-08-24T06:11:34;20.40;99.90
5554;DHT22;2800;49.528;8.666;2023-08-24T06:14:01;20.40;99.90
5554;DHT22;2800;49.528;8.666;2023-08-24T06:16:28;20.50;99.90
5554;DHT22;2800;49.528;8.666;2023-08-24T06:18:53;20.10;99.90
5554;DHT22;2800;49.528;8.666;2023-08-24T06:21:19;20.80;99.90
5554;DHT22;2800;49.528;8.666;2023-08-24T06:23:44;20.90;99.90
5554;DHT22;2800;49.528;8.666;2023-08-24T06:26:12;21.00;99.90
5554;DHT22;2800;49.528;8.666;2023-08-24T06:28:38;21.10;99.90
5554;DHT22;2800;49.528;8.666;2023-08-24T06:31:04;21.20;99.90
5554;DHT22;2800;49.528;8.666;2023-08-24T06:33:33;21.30;99.90
5554;DHT22;2800;49.528;8.666;2023-08-24T06:35:59;21.50;99.90
5554;DHT22;2800;49.528;8.666;2023-08-24T06:38:25;21.50;99.90
5554;DHT22;2800;49.528;8.666;2023-08-24T06:40:51;21.60;99.90
5554;DHT22;2800;49.528;8.666;2023-08-24T06:43:16;21.60;99.90
5554;DHT22;2800;49.528;8.666;2023-08-24T06:45:43;21.60;99.90
5554;DHT22;2800;49.528;8.666;2023-08-24T06:48:08;21.50;99.90
5554;DHT22;2800;49.528;8.666;2023-08-24T06:50:34;21.60;99.90
5554;DHT22;2800;49.528;8.666;2023-08-24T06:53:02;21.70;99.90
5554;DHT22;2800;49.528;8.666;2023-08-24T06:55:29;21.70;99.90
5554;DHT22;2800;49.528;8.666;2023-08-24T06:57:54;21.50;99.90
5554;DHT22;2800;49.528;8.666;2023-08-24T07:00:20;21.40;99.90
5554;DHT22;2800;49.528;8.666;2023-08-24T07:02:47;21.40;99.90
5554;DHT22;2800;49.528;8.666;2023-08-24T07:05:12;21.50;99.90
5554;DHT22;2800;49.528;8.666;2023-08-24T07:07:38;21.50;99.90
5554;DHT22;2800;49.528;8.666;2023-08-24T07:10:04;21.50;99.90
5554;DHT22;2800;49.528;8.666;2023-08-24T07:12:30;21.50;99.90
5554;DHT22;2800;49.528;8.666;2023-08-24T07:14:55;21.60;99.90
5554;DHT22;2800;49.528;8.666;2023-08-24T07:17:21;21.60;99.90
5554;DHT22;2800;49.528;8.666;2023-08-24T07:19:47;21.60;99.90
5554;DHT22;2800;49.528;8.666;2023-08-24T07:22:13;21.90;99.90
5554;DHT22;2800;49.528;8.666;2023-08-24T07:24:39;22.00;99.90
5554;DHT22;2800;49.528;8.666;2023-08-24T07:27:05;22.40;99.90
5554;DHT22;2800;49.528;8.666;2023-08-24T07:29:30;22.50;99.90
5554;DHT22;2800;49.528;8.666;2023-08-24T07:31:56;22.50;99.90
5554;DHT22;2800;49.528;8.666;2023-08-24T07:34:22;23.00;99.90
5554;DHT22;2800;49.528;8.666;2023-08-24T07:36:48;23.90;99.90
5554;DHT22;2800;49.528;8.666;2023-08-24T07:39:14;24.60;99.90
5554;DHT22;2800;49.528;8.666;2023-08-24T07:41:41;25.30;99.90
5554;DHT22;2800;49.528;8.666;2023-08-24T07:44:06;25.70;99.90
5554;DHT22;2800;49.528;8.666;2023-08-24T07:46:32;26.00;99.90
5554;DHT22;2800;49.528;8.666;2023-08-24T07:48:58;26.30;99.90
5554;DHT22;2800;49.528;8.666;2023-08-24T07:51:23;26.20;99.90
5554;DHT22;2800;49.528;8.666;2023-08-24T07:53:48;26.10;99.90
5554;DHT22;2800;49.528;8.666;2023-08-24T07:56:16;26.20;99.90
5554;DHT22;2800;49.528;8.666;2023-08-24T07:58:41;25.80;99.90
5554;DHT22;2800;49.528;8.666;2023-08-24T08:01:07;26.00;99.90
5554;DHT22;2800;49.528;8.666;2023-08-24T08:03:32;25.80;99.90
5554;DHT22;2800;49.528;8.666;2023-08-24T08:05:59;25.80;99.90
5554;DHT22;2800;49.528;8.666;2023-08-24T08:08:24;25.90;99.90
5554;DHT22;2800;49.528;8.666;2023-08-24T08:10:58;26.10;99.90
5554;DHT22;2800;49.528;8.666;2023-08-24T08:13:25;26.00;99.90
5554;DHT22;2800;49.528;8.666;2023-08-24T08:15:50;25.90;99.90
5554;DHT22;2800;49.528;8.666;2023-08-24T08:18:16;25.80;99.90
5554;DHT22;2800;49.528;8.666;2023-08-24T08:20:42;26.10;99.90
5554;DHT22;2800;49.528;8.666;2023-08-24T08:23:07;26.30;99.90
5554;DHT22;2800;49.528;8.666;2023-08-24T08:25:33;27.00;99.90
5554;DHT22;2800;49.528;8.666;2023-08-24T08:27:58;27.50;99.90
5554;DHT22;2800;49.528;8.666;2023-08-24T08:30:24;27.70;99.90
5554;DHT22;2800;49.528;8.666;2023-08-24T08:32:49;27.40;99.90
5554;DHT22;2800;49.528;8.666;2023-08-24T08:35:17;27.10;99.90
5554;DHT22;2800;49.528;8.666;2023-08-24T08:37:42;26.90;99.90
5554;DHT22;2800;49.528;8.666;2023-08-24T08:40:10;26.70;99.90
5554;DHT22;2800;49.528;8.666;2023-08-24T08:42:37;26.60;99.90
5554;DHT22;2800;49.528;8.666;2023-08-24T08:45:04;26.60;99.90
5554;DHT22;2800;49.528;8.666;2023-08-24T08:47:33;27.00;99.90
5554;DHT22;2800;49.528;8.666;2023-08-24T08:50:01;27.30;99.90
5554;DHT22;2800;49.528;8.666;2023-08-24T08:52:28;27.50;99.90
5554;DHT22;2800;49.528;8.666;2023-08-24T08:54:54;28.00;99.90
5554;DHT22;2800;49.528;8.666;2023-08-24T08:57:21;27.50;99.90
5554;DHT22;2800;49.528;8.666;2023-08-24T08:59:48;27.60;99.90
5554;DHT22;2800;49.528;8.666;2023-08-24T09:02:16;27.40;99.90
5554;DHT22;2800;49.528;8.666;2023-08-24T09:04:44;27.50;99.90
5554;DHT22;2800;49.528;8.666;2023-08-24T09:07:13;27.50;99.90
5554;DHT22;2800;49.528;8.666;2023-08-24T09:09:39;27.80;99.90
5554;DHT22;2800;49.528;8.666;2023-08-24T09:12:08;28.00;99.90
5554;DHT22;2800;49.528;8.666;2023-08-24T09:14:34;28.70;99.90
5554;DHT22;2800;49.528;8.666;2023-08-24T09:17:00;28.90;99.90
5554;DHT22;2800;49.528;8.666;2023-08-24T09:19:30;29.10;99.90
5554;DHT22;2800;49.528;8.666;2023-08-24T09:22:01;29.50;99.90
5554;DHT22;2800;49.528;8.666;2023-08-24T09:24:34;29.50;99.90
5554;DHT22;2800;49.528;8.666;2023-08-24T09:27:26;29.20;99.90
5554;DHT22;2800;49.528;8.666;2023-08-24T09:29:52;28.80;99.90
5554;DHT22;2800;49.528;8.666;2023-08-24T09:32:31;29.10;99.90
5554;DHT22;2800;49.528;8.666;2023-08-24T09:35:08;29.70;99.90
5554;DHT22;2800;49.528;8.666;2023-08-24T09:37:35;29.30;99.90
5554;DHT22;2800;49.528;8.666;2023-08-24T09:40:04;29.50;99.90
5554;DHT22;2800;49.528;8.666;2023-08-24T09:42:43;29.70;99.90
5554;DHT22;2800;49.528;8.666;2023-08-24T09:45:13;29.70;99.90
5554;DHT22;2800;49.528;8.666;2023-08-24T09:47:39;29.70;99.90
5554;DHT22;2800;49.528;8.666;2023-08-24T09:50:06;29.70;99.90
5554;DHT22;2800;49.528;8.666;2023-08-24T09:52:33;30.00;99.90
5554;DHT22;2800;49.528;8.666;2023-08-24T09:55:05;30.40;99.90
5554;DHT22;2800;49.528;8.666;2023-08-24T09:57:38;30.30;99.90
5554;DHT22;2800;49.528;8.666;2023-08-24T10:00:09;30.10;99.90
5554;DHT22;2800;49.528;8.666;2023-08-24T10:02:51;29.60;99.90
5554;DHT22;2800;49.528;8.666;2023-08-24T10:05:23;29.70;99.90
5554;DHT22;2800;49.528;8.666;2023-08-24T10:07:53;30.40;99.90
5554;DHT22;2800;49.528;8.666;2023-08-24T10:10:20;30.40;99.90
5554;DHT22;2800;49.528;8.666;2023-08-24T10:12:50;30.20;99.90
5554;DHT22;2800;49.528;8.666;2023-08-24T10:15:17;30.10;99.90
5554;DHT22;2800;49.528;8.666;2023-08-24T10:17:44;30.10;99.90
5554;DHT22;2800;49.528;8.666;2023-08-24T10:20:11;30.10;99.90
5554;DHT22;2800;49.528;8.666;2023-08-24T10:22:37;30.90;99.90
5554;DHT22;2800;49.528;8.666;2023-08-24T10:25:08;30.60;99.90
5554;DHT22;2800;49.528;8.666;2023-08-24T10:27:35;31.10;99.90
5554;DHT22;2800;49.528;8.666;2023-08-24T10:30:01;31.30;99.90
5554;DHT22;2800;49.528;8.666;2023-08-24T10:32:26;31.00;99.90
5554;DHT22;2800;49.528;8.666;2023-08-24T10:34:52;30.60;99.90
5554;DHT22;2800;49.528;8.666;2023-08-24T10:37:25;31.30;99.90
5554;DHT22;2800;49.528;8.666;2023-08-24T10:39:51;31.10;99.90
5554;DHT22;2800;49.528;8.666;2023-08-24T10:42:16;31.10;99.90
5554;DHT22;2800;49.528;8.666;2023-08-24T10:44:45;31.30;99.90
5554;DHT22;2800;49.528;8.666;2023-08-24T10:47:22;31.80;99.90
5554;DHT22;2800;49.528;8.666;2023-08-24T10:52:36;32.00;99.90
5554;DHT22;2800;49.528;8.666;2023-08-24T10:55:03;32.90;99.90
5554;DHT22;2800;49.528;8.666;2023-08-24T10:57:36;32.90;99.90
5554;DHT22;2800;49.528;8.666;2023-08-24T11:00:11;33.00;99.90
5554;DHT22;2800;49.528;8.666;2023-08-24T11:02:48;33.30;99.90
5554;DHT22;2800;49.528;8.666;2023-08-24T11:05:29;33.50;99.90
5554;DHT22;2800;49.528;8.666;2023-08-24T11:08:00;33.90;99.90
5554;DHT22;2800;49.528;8.666;2023-08-24T11:13:13;33.30;99.90
5554;DHT22;2800;49.528;8.666;2023-08-24T11:15:40;33.90;99.90
5554;DHT22;2800;49.528;8.666;2023-08-24T11:18:29;34.10;99.90
5554;DHT22;2800;49.528;8.666;2023-08-24T11:21:01;34.70;99.90
5554;DHT22;2800;49.528;8.666;2023-08-24T11:23:28;35.30;99.90
5554;DHT22;2800;49.528;8.666;2023-08-24T11:25:55;34.90;99.90
5554;DHT22;2800;49.528;8.666;2023-08-24T11:28:26;34.10;99.90
5554;DHT22;2800;49.528;8.666;2023-08-24T11:30:52;34.40;99.90
5554;DHT22;2800;49.528;8.666;2023-08-24T11:33:30;34.60;99.90
5554;DHT22;2800;49.528;8.666;2023-08-24T11:35:57;34.50;99.90
5554;DHT22;2800;49.528;8.666;2023-08-24T11:38:22;34.40;99.90
5554;DHT22;2800;49.528;8.666;2023-08-24T11:40:48;34.20;99.90
5554;DHT22;2800;49.528;8.666;2023-08-24T11:43:24;33.90;99.90
5554;DHT22;2800;49.528;8.666;2023-08-24T11:45:51;33.80;99.90
5554;DHT22;2800;49.528;8.666;2023-08-24T11:48:16;33.40;99.90
5554;DHT22;2800;49.528;8.666;2023-08-24T11:50:42;33.10;99.90
5554;DHT22;2800;49.528;8.666;2023-08-24T11:53:08;32.60;99.90
5554;DHT22;2800;49.528;8.666;2023-08-24T11:55:33;32.30;99.90
5554;DHT22;2800;49.528;8.666;2023-08-24T11:58:00;32.10;99.90
5554;DHT22;2800;49.528;8.666;2023-08-24T12:00:25;32.10;99.90
5554;DHT22;2800;49.528;8.666;2023-08-24T12:02:52;32.20;99.90
5554;DHT22;2800;49.528;8.666;2023-08-24T12:05:26;32.20;99.90
5554;DHT22;2800;49.528;8.666;2023-08-24T12:07:53;31.90;99.90
5554;DHT22;2800;49.528;8.666;2023-08-24T12:10:19;31.90;99.90
5554;DHT22;2800;49.528;8.666;2023-08-24T12:12:45;31.80;99.90
5554;DHT22;2800;49.528;8.666;2023-08-24T12:15:16;32.00;99.90
5554;DHT22;2800;49.528;8.666;2023-08-24T12:17:43;32.10;99.90
5554;DHT22;2800;49.528;8.666;2023-08-24T12:20:22;32.10;99.90
5554;DHT22;2800;49.528;8.666;2023-08-24T12:22:52;32.30;99.90
5554;DHT22;2800;49.528;8.666;2023-08-24T12:25:18;32.40;99.90
5554;DHT22;2800;49.528;8.666;2023-08-24T12:27:43;32.60;99.90
5554;DHT22;2800;49.528;8.666;2023-08-24T12:30:10;32.70;99.90
5554;DHT22;2800;49.528;8.666;2023-08-24T12:32:43;32.60;99.90
5554;DHT22;2800;49.528;8.666;2023-08-24T12:35:14;32.50;99.90
5554;DHT22;2800;49.528;8.666;2023-08-24T12:37:40;32.60;99.90
5554;DHT22;2800;49.528;8.666;2023-08-24T12:40:06;32.70;99.90
5554;DHT22;2800;49.528;8.666;2023-08-24T12:42:32;32.70;99.90
5554;DHT22;2800;49.528;8.666;2023-08-24T12:44:57;33.10;99.90
5554;DHT22;2800;49.528;8.666;2023-08-24T12:47:23;33.10;99.90
5554;DHT22;2800;49.528;8.666;2023-08-24T12:49:49;33.30;99.90
5554;DHT22;2800;49.528;8.666;2023-08-24T12:52:16;32.80;99.90
5554;DHT22;2800;49.528;8.666;2023-08-24T12:54:42;32.50;99.90
5554;DHT22;2800;49.528;8.666;2023-08-24T12:57:07;32.60;99.90
5554;DHT22;2800;49.528;8.666;2023-08-24T12:59:33;32.60;99.90
5554;DHT22;2800;49.528;8.666;2023-08-24T13:01:59;32.40;99.90
5554;DHT22;2800;49.528;8.666;2023-08-24T13:04:24;32.10;99.90
5554;DHT22;2800;49.528;8.666;2023-08-24T13:06:50;32.40;99.90
5554;DHT22;2800;49.528;8.666;2023-08-24T13:09:15;32.00;99.90
5554;DHT22;2800;49.528;8.666;2023-08-24T13:11:42;32.40;99.90
5554;DHT22;2800;49.528;8.666;2023-08-24T13:14:07;32.20;99.90
5554;DHT22;2800;49.528;8.666;2023-08-24T13:16:33;32.20;99.90
5554;DHT22;2800;49.528;8.666;2023-08-24T13:18:59;32.20;99.90
5554;DHT22;2800;49.528;8.666;2023-08-24T13:21:24;32.40;99.90
5554;DHT22;2800;49.528;8.666;2023-08-24T13:23:50;32.30;99.90
5554;DHT22;2800;49.528;8.666;2023-08-24T13:26:20;32.50;99.90
5554;DHT22;2800;49.528;8.666;2023-08-24T13:28:49;32.80;99.90
5554;DHT22;2800;49.528;8.666;2023-08-24T13:31:15;33.10;99.90
5554;DHT22;2800;49.528;8.666;2023-08-24T13:33:40;33.20;99.90
5554;DHT22;2800;49.528;8.666;2023-08-24T13:36:06;33.10;99.90
5554;DHT22;2800;49.528;8.666;2023-08-24T13:38:31;33.40;99.90
5554;DHT22;2800;49.528;8.666;2023-08-24T13:40:57;33.40;99.90
5554;DHT22;2800;49.528;8.666;2023-08-24T13:43:22;33.30;99.90
5554;DHT22;2800;49.528;8.666;2023-08-24T13:45:48;33.40;99.90
5554;DHT22;2800;49.528;8.666;2023-08-24T13:48:13;33.70;99.90
5554;DHT22;2800;49.528;8.666;2023-08-24T13:50:41;34.20;99.90
5554;DHT22;2800;49.528;8.666;2023-08-24T13:53:07;35.20;99.90
5554;DHT22;2800;49.528;8.666;2023-08-24T13:55:33;35.50;99.90
5554;DHT22;2800;49.528;8.666;2023-08-24T13:57:58;35.50;99.90
5554;DHT22;2800;49.528;8.666;2023-08-24T14:00:25;35.10;99.90
5554;DHT22;2800;49.528;8.666;2023-08-24T14:02:50;34.50;99.90
5554;DHT22;2800;49.528;8.666;2023-08-24T14:05:16;33.70;99.90
5554;DHT22;2800;49.528;8.666;2023-08-24T14:07:41;33.20;99.90
5554;DHT22;2800;49.528;8.666;2023-08-24T14:10:07;32.80;99.90
5554;DHT22;2800;49.528;8.666;2023-08-24T14:12:33;32.70;99.90
5554;DHT22;2800;49.528;8.666;2023-08-24T14:14:59;32.70;99.90
5554;DHT22;2800;49.528;8.666;2023-08-24T14:17:25;32.50;99.90
5554;DHT22;2800;49.528;8.666;2023-08-24T14:19:50;32.40;99.90
5554;DHT22;2800;49.528;8.666;2023-08-24T14:22:16;32.30;99.90
5554;DHT22;2800;49.528;8.666;2023-08-24T14:24:41;32.10;99.90
5554;DHT22;2800;49.528;8.666;2023-08-24T14:27:07;31.80;99.90
5554;DHT22;2800;49.528;8.666;2023-08-24T14:29:32;31.70;99.90
5554;DHT22;2800;49.528;8.666;2023-08-24T14:31:58;31.50;99.90
5554;DHT22;2800;49.528;8.666;2023-08-24T14:34:23;31.10;99.90
5554;DHT22;2800;49.528;8.666;2023-08-24T14:36:49;30.60;99.90
5554;DHT22;2800;49.528;8.666;2023-08-24T14:39:15;30.30;99.90
5554;DHT22;2800;49.528;8.666;2023-08-24T14:41:41;30.10;99.90
5554;DHT22;2800;49.528;8.666;2023-08-24T14:44:06;29.80;99.90
5554;DHT22;2800;49.528;8.666;2023-08-24T14:46:32;29.60;99.90
5554;DHT22;2800;49.528;8.666;2023-08-24T14:48:58;29.30;99.90
5554;DHT22;2800;49.528;8.666;2023-08-24T14:51:23;29.10;99.90
5554;DHT22;2800;49.528;8.666;2023-08-24T14:53:49;28.70;99.90
5554;DHT22;2800;49.528;8.666;2023-08-24T14:56:15;28.40;99.90
5554;DHT22;2800;49.528;8.666;2023-08-24T14:58:40;28.10;99.90
5554;DHT22;2800;49.528;8.666;2023-08-24T15:01:06;27.80;99.90
5554;DHT22;2800;49.528;8.666;2023-08-24T15:03:31;27.60;99.90
5554;DHT22;2800;49.528;8.666;2023-08-24T15:06:02;27.30;99.90
5554;DHT22;2800;49.528;8.666;2023-08-24T15:08:32;26.70;99.90
5554;DHT22;2800;49.528;8.666;2023-08-24T15:10:59;26.30;99.90
5554;DHT22;2800;49.528;8.666;2023-08-24T15:13:26;26.00;99.90
5554;DHT22;2800;49.528;8.666;2023-08-24T15:15:55;25.70;99.90
5554;DHT22;2800;49.528;8.666;2023-08-24T15:18:21;25.20;99.90
5554;DHT22;2800;49.528;8.666;2023-08-24T15:20:47;24.90;99.90
5554;DHT22;2800;49.528;8.666;2023-08-24T15:23:27;24.90;99.90
5554;DHT22;2800;49.528;8.666;2023-08-24T15:25:57;25.00;99.90
5554;DHT22;2800;49.528;8.666;2023-08-24T15:28:24;24.90;99.90
5554;DHT22;2800;49.528;8.666;2023-08-24T15:30:50;24.90;99.90
5554;DHT22;2800;49.528;8.666;2023-08-24T15:33:18;24.70;99.90
5554;DHT22;2800;49.528;8.666;2023-08-24T15:35:44;24.90;99.90
5554;DHT22;2800;49.528;8.666;2023-08-24T15:38:10;25.00;99.90
5554;DHT22;2800;49.528;8.666;2023-08-24T15:40:36;25.20;99.90
5554;DHT22;2800;49.528;8.666;2023-08-24T15:43:03;25.30;99.90
5554;DHT22;2800;49.528;8.666;2023-08-24T15:45:29;25.20;99.90
5554;DHT22;2800;49.528;8.666;2023-08-24T15:47:59;25.00;99.90
5554;DHT22;2800;49.528;8.666;2023-08-24T15:50:25;24.80;99.90
5554;DHT22;2800;49.528;8.666;2023-08-24T15:52:51;24.90;99.90
5554;DHT22;2800;49.528;8.666;2023-08-24T15:55:27;24.90;99.90
5554;DHT22;2800;49.528;8.666;2023-08-24T15:57:53;24.80;99.90
5554;DHT22;2800;49.528;8.666;2023-08-24T16:00:19;25.00;99.90
5554;DHT22;2800;49.528;8.666;2023-08-24T16:02:44;25.10;99.90
5554;DHT22;2800;49.528;8.666;2023-08-24T16:05:10;25.20;99.90